AAL2268 KSRQ-KCLT
Flight info
| Callsign | AAL2268 |
|---|---|
| Flight time | 1h 31m |
| Altitude | 37000 |
| Route | TIDES1 CAMJO TWINS PONZE BANKR5 |
| Aircraft | B738/M-SDE2E3FGHIRWXY/LB1 |
Departure
| Time | 2026-04-22 22:19 |
|---|---|
| Airport | Sarasota Bradenton International Airport (KSRQ) |
Arrival
| Time | 2026-04-22 23:51 |
|---|---|
| Airport | Charlotte Douglas International Airport (KCLT) |
| Time | Latitude | Longitude | Altitude | Speed | Heading |
|---|---|---|---|---|---|
| 2026-04-22 21:58 | 27.38878 | -82.55302 | 36 ft | 0 kts | 271° |
| 2026-04-22 22:03 | 27.38878 | -82.55300 | 36 ft | 2 kts | 271° |
| 2026-04-22 22:03 | 27.38880 | -82.55271 | 29 ft | 4 kts | 254° |
| 2026-04-22 22:03 | 27.38890 | -82.55244 | 34 ft | 4 kts | 227° |
| 2026-04-22 22:03 | 27.38910 | -82.55230 | 32 ft | 4 kts | 174° |
| 2026-04-22 22:04 | 27.38917 | -82.55231 | 34 ft | 1 kts | 159° |
| 2026-04-22 22:14 | 27.38912 | -82.55228 | 33 ft | 5 kts | 159° |
| 2026-04-22 22:14 | 27.38876 | -82.55208 | 35 ft | 6 kts | 148° |
| 2026-04-22 22:15 | 27.38844 | -82.55181 | 35 ft | 6 kts | 140° |
| 2026-04-22 22:15 | 27.38815 | -82.55149 | 36 ft | 6 kts | 129° |
| 2026-04-22 22:15 | 27.38799 | -82.55108 | 36 ft | 6 kts | 101° |
| 2026-04-22 22:15 | 27.38800 | -82.55064 | 37 ft | 6 kts | 86° |
| 2026-04-22 22:16 | 27.38802 | -82.55021 | 37 ft | 6 kts | 88° |
| 2026-04-22 22:16 | 27.38808 | -82.54938 | 39 ft | 15 kts | 69° |
| 2026-04-22 22:16 | 27.38794 | -82.54832 | 38 ft | 14 kts | 131° |
| 2026-04-22 22:16 | 27.38726 | -82.54753 | 36 ft | 14 kts | 135° |
| 2026-04-22 22:17 | 27.38661 | -82.54680 | 37 ft | 13 kts | 134° |
| 2026-04-22 22:17 | 27.38599 | -82.54607 | 36 ft | 13 kts | 129° |
| 2026-04-22 22:17 | 27.38587 | -82.54579 | 36 ft | 0 kts | 103° |
| 2026-04-22 22:18 | 27.38586 | -82.54571 | 36 ft | 6 kts | 96° |
| 2026-04-22 22:18 | 27.38608 | -82.54520 | 34 ft | 12 kts | 48° |
| 2026-04-22 22:18 | 27.38683 | -82.54533 | 33 ft | 6 kts | 315° |
| 2026-04-22 22:18 | 27.38684 | -82.54534 | 33 ft | 0 kts | 315° |
| 2026-04-22 22:19 | 27.38732 | -82.54589 | 34 ft | 42 kts | 314° |
| 2026-04-22 22:19 | 27.39166 | -82.55090 | 29 ft | 133 kts | 314° |
| 2026-04-22 22:19 | 27.39962 | -82.56001 | 275 ft | 191 kts | 311° |
| 2026-04-22 22:19 | 27.40943 | -82.57201 | 894 ft | 220 kts | 314° |
| 2026-04-22 22:20 | 27.42029 | -82.58556 | 1391 ft | 249 kts | 312° |
| 2026-04-22 22:20 | 27.42809 | -82.60319 | 1836 ft | 254 kts | 275° |
| 2026-04-22 22:20 | 27.42496 | -82.62238 | 2312 ft | 257 kts | 242° |
| 2026-04-22 22:20 | 27.41806 | -82.64104 | 2769 ft | 262 kts | 259° |
| 2026-04-22 22:21 | 27.42001 | -82.66103 | 3297 ft | 260 kts | 288° |
| 2026-04-22 22:21 | 27.42658 | -82.68022 | 3800 ft | 263 kts | 293° |
| 2026-04-22 22:21 | 27.43382 | -82.69938 | 4294 ft | 262 kts | 294° |
| 2026-04-22 22:21 | 27.44087 | -82.71823 | 4816 ft | 274 kts | 293° |
| 2026-04-22 22:22 | 27.44831 | -82.73850 | 5327 ft | 282 kts | 292° |
| 2026-04-22 22:22 | 27.45573 | -82.75893 | 5818 ft | 280 kts | 292° |
| 2026-04-22 22:22 | 27.46514 | -82.77797 | 6291 ft | 280 kts | 314° |
| 2026-04-22 22:22 | 27.48113 | -82.78990 | 6803 ft | 275 kts | 343° |
| 2026-04-22 22:23 | 27.49979 | -82.79320 | 7295 ft | 272 kts | 2° |
| 2026-04-22 22:23 | 27.51879 | -82.79246 | 7791 ft | 274 kts | 4° |
| 2026-04-22 22:23 | 27.53793 | -82.79153 | 8327 ft | 278 kts | 3° |
| 2026-04-22 22:23 | 27.55748 | -82.79069 | 8801 ft | 283 kts | 2° |
| 2026-04-22 22:24 | 27.57727 | -82.78992 | 9311 ft | 285 kts | 1° |
| 2026-04-22 22:24 | 27.59712 | -82.78943 | 9834 ft | 286 kts | 359° |
| 2026-04-22 22:24 | 27.61699 | -82.78928 | 10205 ft | 298 kts | 358° |
| 2026-04-22 22:24 | 27.63874 | -82.78922 | 10410 ft | 326 kts | 358° |
| 2026-04-22 22:25 | 27.66195 | -82.78914 | 10916 ft | 339 kts | 358° |
| 2026-04-22 22:25 | 27.68581 | -82.78903 | 11700 ft | 344 kts | 358° |
| 2026-04-22 22:25 | 27.70978 | -82.78888 | 12562 ft | 346 kts | 358° |
| 2026-04-22 22:25 | 27.72604 | -82.78876 | 13128 ft | 348 kts | 357° |
| 2026-04-22 22:26 | 27.75012 | -82.78859 | 13924 ft | 352 kts | 357° |
| 2026-04-22 22:26 | 27.77472 | -82.78840 | 14637 ft | 356 kts | 357° |
| 2026-04-22 22:26 | 27.79959 | -82.78822 | 15361 ft | 359 kts | 356° |
| 2026-04-22 22:26 | 27.82466 | -82.78805 | 16098 ft | 362 kts | 357° |
| 2026-04-22 22:27 | 27.85008 | -82.78789 | 16834 ft | 366 kts | 356° |
| 2026-04-22 22:27 | 27.87567 | -82.78773 | 17571 ft | 369 kts | 356° |
| 2026-04-22 22:27 | 27.90149 | -82.78756 | 18278 ft | 373 kts | 356° |
| 2026-04-22 22:27 | 27.92761 | -82.78739 | 18911 ft | 376 kts | 356° |
| 2026-04-22 22:28 | 27.95385 | -82.78719 | 19516 ft | 380 kts | 356° |
| 2026-04-22 22:28 | 27.98042 | -82.78699 | 20110 ft | 384 kts | 356° |
| 2026-04-22 22:28 | 28.00729 | -82.78680 | 20720 ft | 387 kts | 355° |
| 2026-04-22 22:28 | 28.03424 | -82.78663 | 21320 ft | 390 kts | 355° |
| 2026-04-22 22:29 | 28.06158 | -82.78651 | 21895 ft | 394 kts | 354° |
| 2026-04-22 22:29 | 28.08913 | -82.78648 | 22462 ft | 397 kts | 354° |
| 2026-04-22 22:29 | 28.11675 | -82.78636 | 23012 ft | 401 kts | 354° |
| 2026-04-22 22:29 | 28.14477 | -82.78618 | 23555 ft | 404 kts | 354° |
| 2026-04-22 22:30 | 28.17311 | -82.78600 | 24034 ft | 408 kts | 354° |
| 2026-04-22 22:30 | 28.20158 | -82.78581 | 24536 ft | 409 kts | 354° |
| 2026-04-22 22:30 | 28.23013 | -82.78562 | 25012 ft | 412 kts | 354° |
| 2026-04-22 22:30 | 28.25846 | -82.78543 | 25449 ft | 415 kts | 354° |
| 2026-04-22 22:31 | 28.28741 | -82.78524 | 25870 ft | 418 kts | 354° |
| 2026-04-22 22:31 | 28.31653 | -82.78506 | 26287 ft | 421 kts | 354° |
| 2026-04-22 22:31 | 28.34590 | -82.78486 | 26705 ft | 423 kts | 354° |
| 2026-04-22 22:31 | 28.37546 | -82.78467 | 27122 ft | 426 kts | 354° |
| 2026-04-22 22:32 | 28.40528 | -82.78447 | 27530 ft | 429 kts | 354° |
| 2026-04-22 22:32 | 28.43529 | -82.78317 | 27912 ft | 434 kts | 357° |
| 2026-04-22 22:32 | 28.46569 | -82.78068 | 28306 ft | 438 kts | 358° |
| 2026-04-22 22:32 | 28.49605 | -82.77772 | 28778 ft | 440 kts | 358° |
| 2026-04-22 22:33 | 28.52668 | -82.77463 | 29092 ft | 444 kts | 358° |
| 2026-04-22 22:33 | 28.55726 | -82.77160 | 29408 ft | 447 kts | 358° |
| 2026-04-22 22:33 | 28.58837 | -82.76861 | 29776 ft | 450 kts | 358° |
| 2026-04-22 22:33 | 28.61962 | -82.76569 | 30146 ft | 452 kts | 358° |
| 2026-04-22 22:34 | 28.65104 | -82.76281 | 30447 ft | 454 kts | 358° |
| 2026-04-22 22:34 | 28.68261 | -82.75995 | 30751 ft | 456 kts | 358° |
| 2026-04-22 22:34 | 28.71420 | -82.75709 | 31158 ft | 454 kts | 357° |
| 2026-04-22 22:34 | 28.74560 | -82.75424 | 31638 ft | 451 kts | 357° |
| 2026-04-22 22:35 | 28.77686 | -82.75140 | 32129 ft | 448 kts | 356° |
| 2026-04-22 22:35 | 28.80792 | -82.74858 | 32527 ft | 447 kts | 356° |
| 2026-04-22 22:35 | 28.83901 | -82.74578 | 32904 ft | 447 kts | 356° |
| 2026-04-22 22:35 | 28.86996 | -82.74299 | 33304 ft | 445 kts | 356° |
| 2026-04-22 22:36 | 28.90086 | -82.74020 | 33741 ft | 443 kts | 355° |
| 2026-04-22 22:36 | 28.93115 | -82.73746 | 34156 ft | 442 kts | 355° |
| 2026-04-22 22:36 | 28.96184 | -82.73468 | 34472 ft | 441 kts | 355° |
| 2026-04-22 22:36 | 28.99246 | -82.73192 | 34746 ft | 442 kts | 355° |
| 2026-04-22 22:37 | 29.02312 | -82.72915 | 35004 ft | 442 kts | 355° |
| 2026-04-22 22:37 | 29.05378 | -82.72638 | 35313 ft | 442 kts | 356° |
| 2026-04-22 22:37 | 29.08439 | -82.72360 | 35620 ft | 441 kts | 356° |
| 2026-04-22 22:37 | 29.11503 | -82.72081 | 35900 ft | 441 kts | 356° |
| 2026-04-22 22:38 | 29.14568 | -82.71803 | 36151 ft | 441 kts | 356° |
| 2026-04-22 22:38 | 29.17627 | -82.71525 | 36417 ft | 441 kts | 356° |
| 2026-04-22 22:38 | 29.20691 | -82.71246 | 36700 ft | 440 kts | 356° |
| 2026-04-22 22:38 | 29.23745 | -82.70968 | 36958 ft | 440 kts | 356° |
| 2026-04-22 22:39 | 29.26760 | -82.70694 | 37173 ft | 441 kts | 356° |
| 2026-04-22 22:39 | 29.32929 | -82.70134 | 37185 ft | 446 kts | 356° |
| 2026-04-22 22:40 | 29.39094 | -82.69567 | 37182 ft | 440 kts | 357° |
| 2026-04-22 22:40 | 29.45150 | -82.69192 | 37194 ft | 433 kts | 353° |
| 2026-04-22 22:41 | 29.51162 | -82.69188 | 37193 ft | 432 kts | 352° |
| 2026-04-22 22:41 | 29.57182 | -82.69208 | 37193 ft | 432 kts | 352° |
| 2026-04-22 22:42 | 29.63207 | -82.69190 | 37219 ft | 433 kts | 353° |
| 2026-04-22 22:42 | 29.69213 | -82.69155 | 37205 ft | 434 kts | 353° |
| 2026-04-22 22:43 | 29.75264 | -82.69115 | 37199 ft | 435 kts | 353° |
| 2026-04-22 22:43 | 29.81323 | -82.69076 | 37200 ft | 436 kts | 353° |
| 2026-04-22 22:44 | 29.87389 | -82.69037 | 37202 ft | 436 kts | 353° |
| 2026-04-22 22:44 | 29.93458 | -82.68999 | 37205 ft | 436 kts | 353° |
| 2026-04-22 22:45 | 29.99535 | -82.68961 | 37196 ft | 437 kts | 353° |
| 2026-04-22 22:45 | 30.05613 | -82.68920 | 37189 ft | 437 kts | 353° |
| 2026-04-22 22:46 | 30.11686 | -82.68876 | 37174 ft | 436 kts | 353° |
| 2026-04-22 22:46 | 30.17726 | -82.68833 | 37177 ft | 436 kts | 353° |
| 2026-04-22 22:47 | 30.23793 | -82.68791 | 37241 ft | 436 kts | 353° |
| 2026-04-22 22:47 | 30.29863 | -82.68748 | 37239 ft | 436 kts | 353° |
| 2026-04-22 22:48 | 30.35941 | -82.68706 | 37254 ft | 436 kts | 354° |
| 2026-04-22 22:48 | 30.42011 | -82.68663 | 37250 ft | 436 kts | 353° |
| 2026-04-22 22:49 | 30.48035 | -82.68620 | 37266 ft | 435 kts | 353° |
| 2026-04-22 22:49 | 30.54118 | -82.68251 | 37264 ft | 441 kts | 0° |
| 2026-04-22 22:50 | 30.60210 | -82.67239 | 37258 ft | 442 kts | 2° |
| 2026-04-22 22:50 | 30.66302 | -82.66167 | 37260 ft | 442 kts | 1° |
| 2026-04-22 22:51 | 30.72391 | -82.65143 | 37262 ft | 441 kts | 1° |
| 2026-04-22 22:51 | 30.78469 | -82.64154 | 37254 ft | 441 kts | 2° |
| 2026-04-22 22:52 | 30.84560 | -82.63169 | 37248 ft | 441 kts | 2° |
| 2026-04-22 22:52 | 30.90613 | -82.62189 | 37233 ft | 441 kts | 2° |
| 2026-04-22 22:53 | 30.96690 | -82.61203 | 37198 ft | 441 kts | 2° |
| 2026-04-22 22:53 | 31.02760 | -82.60218 | 37193 ft | 440 kts | 2° |
| 2026-04-22 22:54 | 31.08827 | -82.59230 | 37195 ft | 440 kts | 4° |
| 2026-04-22 22:54 | 31.14885 | -82.58244 | 37190 ft | 438 kts | 4° |
| 2026-04-22 22:55 | 31.20921 | -82.57259 | 37191 ft | 437 kts | 4° |
| 2026-04-22 22:55 | 31.29889 | -82.55795 | 37195 ft | 434 kts | 4° |
| 2026-04-22 22:56 | 31.35867 | -82.54816 | 37190 ft | 433 kts | 4° |
| 2026-04-22 22:56 | 31.41836 | -82.53839 | 37182 ft | 432 kts | 4° |
| 2026-04-22 22:57 | 31.47782 | -82.52864 | 37184 ft | 431 kts | 4° |
| 2026-04-22 22:57 | 31.53715 | -82.51890 | 37184 ft | 430 kts | 4° |
| 2026-04-22 22:58 | 31.59640 | -82.50916 | 37196 ft | 429 kts | 5° |
| 2026-04-22 22:58 | 31.65522 | -82.49948 | 37184 ft | 429 kts | 5° |
| 2026-04-22 22:59 | 31.71424 | -82.48975 | 37185 ft | 429 kts | 5° |
| 2026-04-22 22:59 | 31.77337 | -82.47999 | 37185 ft | 429 kts | 5° |
| 2026-04-22 23:00 | 31.83249 | -82.47020 | 37188 ft | 429 kts | 5° |
| 2026-04-22 23:00 | 31.89174 | -82.46041 | 37190 ft | 429 kts | 5° |
| 2026-04-22 23:01 | 31.95089 | -82.45061 | 37178 ft | 429 kts | 5° |
| 2026-04-22 23:01 | 32.01004 | -82.44079 | 37177 ft | 429 kts | 5° |
| 2026-04-22 23:02 | 32.06927 | -82.43095 | 37176 ft | 429 kts | 5° |
| 2026-04-22 23:02 | 32.12794 | -82.42119 | 37178 ft | 428 kts | 5° |
| 2026-04-22 23:03 | 32.18701 | -82.41135 | 37174 ft | 428 kts | 5° |
| 2026-04-22 23:03 | 32.24615 | -82.40149 | 37184 ft | 428 kts | 5° |
| 2026-04-22 23:04 | 32.30506 | -82.39165 | 37177 ft | 427 kts | 5° |
| 2026-04-22 23:04 | 32.36361 | -82.38186 | 37178 ft | 427 kts | 5° |
| 2026-04-22 23:05 | 32.42249 | -82.37200 | 37180 ft | 427 kts | 5° |
| 2026-04-22 23:05 | 32.48131 | -82.36213 | 37169 ft | 426 kts | 5° |
| 2026-04-22 23:06 | 32.53985 | -82.35230 | 37166 ft | 425 kts | 5° |
| 2026-04-22 23:06 | 32.59848 | -82.34244 | 37169 ft | 425 kts | 5° |
| 2026-04-22 23:07 | 32.65695 | -82.33260 | 37165 ft | 424 kts | 6° |
| 2026-04-22 23:07 | 32.71530 | -82.32276 | 37161 ft | 423 kts | 6° |
| 2026-04-22 23:08 | 32.77359 | -82.31286 | 37160 ft | 423 kts | 7° |
| 2026-04-22 23:08 | 32.83094 | -82.29579 | 37161 ft | 425 kts | 14° |
| 2026-04-22 23:09 | 32.88745 | -82.27550 | 37158 ft | 424 kts | 14° |
| 2026-04-22 23:09 | 32.94368 | -82.25549 | 37164 ft | 424 kts | 14° |
| 2026-04-22 23:10 | 33.00034 | -82.23572 | 37150 ft | 424 kts | 13° |
| 2026-04-22 23:10 | 33.05690 | -82.21614 | 37150 ft | 423 kts | 13° |
| 2026-04-22 23:11 | 33.11347 | -82.19657 | 37145 ft | 423 kts | 13° |
| 2026-04-22 23:11 | 33.16962 | -82.17710 | 37141 ft | 422 kts | 13° |
| 2026-04-22 23:12 | 33.22605 | -82.15751 | 37136 ft | 422 kts | 13° |
| 2026-04-22 23:12 | 33.27338 | -82.14105 | 37136 ft | 422 kts | 13° |
| 2026-04-22 23:13 | 33.33002 | -82.12135 | 36670 ft | 428 kts | 14° |
| 2026-04-22 23:13 | 33.35813 | -82.11155 | 36230 ft | 424 kts | 14° |
| 2026-04-22 23:13 | 33.38628 | -82.10172 | 35802 ft | 419 kts | 14° |
| 2026-04-22 23:14 | 33.41412 | -82.09200 | 35366 ft | 415 kts | 14° |
| 2026-04-22 23:14 | 33.44171 | -82.08236 | 34936 ft | 412 kts | 14° |
| 2026-04-22 23:14 | 33.46911 | -82.07278 | 34511 ft | 409 kts | 14° |
| 2026-04-22 23:14 | 33.49632 | -82.06327 | 34080 ft | 406 kts | 14° |
| 2026-04-22 23:15 | 33.52342 | -82.05379 | 33600 ft | 403 kts | 14° |
| 2026-04-22 23:15 | 33.55034 | -82.04437 | 33130 ft | 401 kts | 15° |
| 2026-04-22 23:15 | 33.57704 | -82.03502 | 32664 ft | 398 kts | 15° |
| 2026-04-22 23:15 | 33.60357 | -82.02572 | 32210 ft | 396 kts | 15° |
| 2026-04-22 23:16 | 33.62996 | -82.01646 | 31765 ft | 394 kts | 15° |
| 2026-04-22 23:16 | 33.65596 | -82.00734 | 31322 ft | 392 kts | 15° |
| 2026-04-22 23:16 | 33.68204 | -81.99818 | 30886 ft | 389 kts | 15° |
| 2026-04-22 23:16 | 33.70798 | -81.98906 | 30456 ft | 387 kts | 15° |
| 2026-04-22 23:17 | 33.73383 | -81.97997 | 30005 ft | 385 kts | 15° |
| 2026-04-22 23:17 | 33.75946 | -81.97095 | 29497 ft | 383 kts | 15° |
| 2026-04-22 23:17 | 33.78496 | -81.96190 | 29003 ft | 380 kts | 17° |
| 2026-04-22 23:17 | 33.80990 | -81.95150 | 28526 ft | 378 kts | 19° |
| 2026-04-22 23:18 | 33.83440 | -81.94025 | 28045 ft | 376 kts | 20° |
| 2026-04-22 23:18 | 33.85871 | -81.92891 | 27577 ft | 374 kts | 20° |
| 2026-04-22 23:18 | 33.88292 | -81.91775 | 27127 ft | 371 kts | 19° |
| 2026-04-22 23:18 | 33.90693 | -81.90684 | 26677 ft | 366 kts | 19° |
| 2026-04-22 23:19 | 33.93066 | -81.89615 | 26233 ft | 362 kts | 19° |
| 2026-04-22 23:19 | 33.95408 | -81.88556 | 25798 ft | 357 kts | 19° |
| 2026-04-22 23:19 | 33.97711 | -81.87470 | 25369 ft | 354 kts | 20° |
| 2026-04-22 23:19 | 33.99992 | -81.86378 | 24938 ft | 350 kts | 20° |
| 2026-04-22 23:20 | 34.02244 | -81.85302 | 24524 ft | 348 kts | 20° |
| 2026-04-22 23:20 | 34.04454 | -81.84223 | 24220 ft | 348 kts | 23° |
| 2026-04-22 23:20 | 34.06617 | -81.82831 | 24204 ft | 354 kts | 28° |
| 2026-04-22 23:20 | 34.08725 | -81.81276 | 24156 ft | 354 kts | 30° |
| 2026-04-22 23:21 | 34.10789 | -81.79711 | 24151 ft | 350 kts | 30° |
| 2026-04-22 23:21 | 34.12854 | -81.78157 | 24152 ft | 350 kts | 30° |
| 2026-04-22 23:21 | 34.14938 | -81.76609 | 24151 ft | 351 kts | 29° |
| 2026-04-22 23:21 | 34.17026 | -81.75076 | 24151 ft | 351 kts | 29° |
| 2026-04-22 23:22 | 34.19116 | -81.73550 | 24151 ft | 351 kts | 29° |
| 2026-04-22 23:22 | 34.21206 | -81.72030 | 24146 ft | 350 kts | 29° |
| 2026-04-22 23:22 | 34.23307 | -81.70504 | 23743 ft | 354 kts | 29° |
| 2026-04-22 23:22 | 34.25417 | -81.68970 | 23273 ft | 352 kts | 29° |
| 2026-04-22 23:23 | 34.27512 | -81.67447 | 22782 ft | 350 kts | 29° |
| 2026-04-22 23:23 | 34.29587 | -81.65937 | 22321 ft | 346 kts | 29° |
| 2026-04-22 23:23 | 34.31641 | -81.64442 | 21856 ft | 343 kts | 29° |
| 2026-04-22 23:23 | 34.33676 | -81.62959 | 21397 ft | 340 kts | 29° |
| 2026-04-22 23:24 | 34.35689 | -81.61491 | 20948 ft | 336 kts | 29° |
| 2026-04-22 23:24 | 34.37681 | -81.60039 | 20499 ft | 333 kts | 29° |
| 2026-04-22 23:24 | 34.39637 | -81.58611 | 20068 ft | 331 kts | 29° |
| 2026-04-22 23:24 | 34.41600 | -81.57177 | 19633 ft | 328 kts | 29° |
| 2026-04-22 23:25 | 34.43552 | -81.55751 | 19182 ft | 326 kts | 29° |
| 2026-04-22 23:25 | 34.45486 | -81.54337 | 18760 ft | 324 kts | 29° |
| 2026-04-22 23:25 | 34.47407 | -81.52932 | 18334 ft | 321 kts | 29° |
| 2026-04-22 23:25 | 34.49315 | -81.51526 | 17858 ft | 320 kts | 30° |
| 2026-04-22 23:26 | 34.51181 | -81.50058 | 17376 ft | 318 kts | 31° |
| 2026-04-22 23:26 | 34.53016 | -81.48577 | 16918 ft | 316 kts | 31° |
| 2026-04-22 23:26 | 34.54841 | -81.47107 | 16460 ft | 314 kts | 31° |
| 2026-04-22 23:26 | 34.56654 | -81.45654 | 16010 ft | 312 kts | 31° |
| 2026-04-22 23:27 | 34.58458 | -81.44214 | 15568 ft | 310 kts | 31° |
| 2026-04-22 23:27 | 34.60250 | -81.42783 | 15131 ft | 308 kts | 31° |
| 2026-04-22 23:27 | 34.62036 | -81.41363 | 14700 ft | 306 kts | 30° |
| 2026-04-22 23:27 | 34.63791 | -81.39968 | 14282 ft | 304 kts | 30° |
| 2026-04-22 23:28 | 34.65579 | -81.38547 | 13843 ft | 302 kts | 30° |
| 2026-04-22 23:28 | 34.67309 | -81.37171 | 13364 ft | 300 kts | 30° |
| 2026-04-22 23:28 | 34.69052 | -81.35783 | 12907 ft | 299 kts | 30° |
| 2026-04-22 23:28 | 34.70787 | -81.34401 | 12446 ft | 298 kts | 30° |
| 2026-04-22 23:29 | 34.72511 | -81.33026 | 12081 ft | 293 kts | 30° |
| 2026-04-22 23:29 | 34.74220 | -81.31663 | 12053 ft | 294 kts | 30° |
| 2026-04-22 23:29 | 34.75928 | -81.30300 | 12016 ft | 292 kts | 30° |
| 2026-04-22 23:29 | 34.77618 | -81.28951 | 12015 ft | 290 kts | 30° |
| 2026-04-22 23:30 | 34.79305 | -81.27604 | 12021 ft | 289 kts | 30° |
| 2026-04-22 23:30 | 34.80942 | -81.26184 | 12014 ft | 290 kts | 37° |
| 2026-04-22 23:30 | 34.82419 | -81.24503 | 12022 ft | 291 kts | 40° |
| 2026-04-22 23:30 | 34.83868 | -81.22782 | 12015 ft | 291 kts | 40° |
| 2026-04-22 23:31 | 34.85330 | -81.21076 | 12020 ft | 290 kts | 39° |
| 2026-04-22 23:31 | 34.86798 | -81.19388 | 12018 ft | 290 kts | 39° |
| 2026-04-22 23:31 | 34.88272 | -81.17705 | 12019 ft | 290 kts | 39° |
| 2026-04-22 23:31 | 34.89746 | -81.16023 | 12019 ft | 291 kts | 39° |
| 2026-04-22 23:32 | 34.91227 | -81.14336 | 12001 ft | 291 kts | 39° |
| 2026-04-22 23:32 | 34.92704 | -81.12653 | 12004 ft | 291 kts | 39° |
| 2026-04-22 23:32 | 34.94074 | -81.11091 | 12000 ft | 292 kts | 39° |
| 2026-04-22 23:32 | 34.95555 | -81.09401 | 12001 ft | 292 kts | 39° |
| 2026-04-22 23:33 | 34.97043 | -81.07704 | 11996 ft | 293 kts | 39° |
| 2026-04-22 23:33 | 34.98554 | -81.06045 | 11993 ft | 290 kts | 31° |
| 2026-04-22 23:33 | 35.00362 | -81.05127 | 12004 ft | 275 kts | 6° |
| 2026-04-22 23:33 | 35.02210 | -81.05037 | 11994 ft | 257 kts | 354° |
| 2026-04-22 23:34 | 35.03933 | -81.05205 | 11985 ft | 241 kts | 352° |
| 2026-04-22 23:34 | 35.05543 | -81.05379 | 11960 ft | 225 kts | 352° |
| 2026-04-22 23:34 | 35.07134 | -81.05541 | 11500 ft | 231 kts | 352° |
| 2026-04-22 23:34 | 35.08731 | -81.05694 | 11069 ft | 229 kts | 353° |
| 2026-04-22 23:35 | 35.10312 | -81.05839 | 10631 ft | 227 kts | 353° |
| 2026-04-22 23:35 | 35.11889 | -81.05983 | 10188 ft | 226 kts | 353° |
| 2026-04-22 23:35 | 35.13450 | -81.06123 | 9742 ft | 225 kts | 353° |
| 2026-04-22 23:35 | 35.15013 | -81.06263 | 9278 ft | 224 kts | 353° |
| 2026-04-22 23:36 | 35.16551 | -81.06400 | 8810 ft | 224 kts | 353° |
| 2026-04-22 23:36 | 35.18101 | -81.06538 | 8354 ft | 223 kts | 353° |
| 2026-04-22 23:36 | 35.19647 | -81.06676 | 7897 ft | 222 kts | 352° |
| 2026-04-22 23:36 | 35.21191 | -81.06813 | 7465 ft | 222 kts | 353° |
| 2026-04-22 23:37 | 35.22730 | -81.06950 | 7017 ft | 221 kts | 353° |
| 2026-04-22 23:37 | 35.24267 | -81.07087 | 6592 ft | 222 kts | 352° |
| 2026-04-22 23:37 | 35.25802 | -81.07224 | 6158 ft | 222 kts | 352° |
| 2026-04-22 23:37 | 35.27303 | -81.07356 | 6005 ft | 208 kts | 352° |
| 2026-04-22 23:38 | 35.28706 | -81.07479 | 5989 ft | 198 kts | 352° |
| 2026-04-22 23:38 | 35.30059 | -81.07600 | 5986 ft | 197 kts | 352° |
| 2026-04-22 23:38 | 35.31447 | -81.07725 | 5990 ft | 199 kts | 352° |
| 2026-04-22 23:38 | 35.32810 | -81.07847 | 5993 ft | 199 kts | 352° |
| 2026-04-22 23:39 | 35.34193 | -81.07971 | 5988 ft | 199 kts | 352° |
| 2026-04-22 23:39 | 35.35563 | -81.08144 | 5995 ft | 197 kts | 349° |
| 2026-04-22 23:39 | 35.36942 | -81.08274 | 5991 ft | 200 kts | 353° |
| 2026-04-22 23:39 | 35.38348 | -81.08376 | 5743 ft | 205 kts | 353° |
| 2026-04-22 23:40 | 35.39772 | -81.08477 | 5493 ft | 203 kts | 353° |
| 2026-04-22 23:40 | 35.41174 | -81.08569 | 5253 ft | 200 kts | 353° |
| 2026-04-22 23:40 | 35.42558 | -81.08673 | 5064 ft | 200 kts | 352° |
| 2026-04-22 23:40 | 35.43921 | -81.08792 | 5025 ft | 194 kts | 352° |
| 2026-04-22 23:41 | 35.45251 | -81.08910 | 4983 ft | 189 kts | 352° |
| 2026-04-22 23:41 | 35.46563 | -81.09026 | 4985 ft | 189 kts | 352° |
| 2026-04-22 23:41 | 35.47888 | -81.09147 | 5000 ft | 192 kts | 352° |
| 2026-04-22 23:41 | 35.49222 | -81.09270 | 4928 ft | 195 kts | 352° |
| 2026-04-22 23:42 | 35.50587 | -81.09387 | 4669 ft | 196 kts | 353° |
| 2026-04-22 23:42 | 35.51917 | -81.09466 | 4407 ft | 193 kts | 359° |
| 2026-04-22 23:42 | 35.53198 | -81.08994 | 4135 ft | 196 kts | 30° |
| 2026-04-22 23:42 | 35.54127 | -81.07744 | 4063 ft | 207 kts | 60° |
| 2026-04-22 23:43 | 35.54488 | -81.06031 | 4023 ft | 208 kts | 84° |
| 2026-04-22 23:43 | 35.54591 | -81.04280 | 3994 ft | 204 kts | 84° |
| 2026-04-22 23:43 | 35.54697 | -81.02538 | 3997 ft | 205 kts | 84° |
| 2026-04-22 23:43 | 35.54803 | -81.00789 | 3999 ft | 207 kts | 85° |
| 2026-04-22 23:44 | 35.54556 | -80.99071 | 3965 ft | 206 kts | 123° |
| 2026-04-22 23:44 | 35.53453 | -80.98071 | 3991 ft | 197 kts | 171° |
| 2026-04-22 23:44 | 35.52106 | -80.97910 | 3991 ft | 196 kts | 179° |
| 2026-04-22 23:44 | 35.50744 | -80.97776 | 4000 ft | 197 kts | 178° |
| 2026-04-22 23:45 | 35.49376 | -80.97645 | 3992 ft | 197 kts | 179° |
| 2026-04-22 23:45 | 35.47996 | -80.97520 | 3993 ft | 199 kts | 179° |
| 2026-04-22 23:45 | 35.46616 | -80.97396 | 3998 ft | 199 kts | 179° |
| 2026-04-22 23:45 | 35.45228 | -80.97274 | 3985 ft | 200 kts | 179° |
| 2026-04-22 23:46 | 35.43838 | -80.97151 | 3990 ft | 200 kts | 179° |
| 2026-04-22 23:46 | 35.42502 | -80.97032 | 3980 ft | 189 kts | 179° |
| 2026-04-22 23:46 | 35.41200 | -80.96918 | 3989 ft | 187 kts | 180° |
| 2026-04-22 23:46 | 35.39946 | -80.96808 | 3966 ft | 177 kts | 180° |
| 2026-04-22 23:47 | 35.38712 | -80.96703 | 3795 ft | 179 kts | 180° |
| 2026-04-22 23:47 | 35.37480 | -80.96597 | 3587 ft | 176 kts | 181° |
| 2026-04-22 23:47 | 35.36286 | -80.96493 | 3359 ft | 166 kts | 180° |
| 2026-04-22 23:47 | 35.35177 | -80.96395 | 3165 ft | 152 kts | 180° |
| 2026-04-22 23:48 | 35.34145 | -80.96306 | 2967 ft | 146 kts | 181° |
| 2026-04-22 23:48 | 35.33133 | -80.96220 | 2771 ft | 143 kts | 181° |
| 2026-04-22 23:48 | 35.32133 | -80.96134 | 2595 ft | 144 kts | 180° |
| 2026-04-22 23:48 | 35.31134 | -80.96048 | 2397 ft | 144 kts | 180° |
| 2026-04-22 23:49 | 35.30147 | -80.95961 | 2203 ft | 139 kts | 181° |
| 2026-04-22 23:49 | 35.29198 | -80.95880 | 2035 ft | 137 kts | 179° |
| 2026-04-22 23:49 | 35.28216 | -80.95796 | 1856 ft | 145 kts | 180° |
| 2026-04-22 23:49 | 35.27217 | -80.95709 | 1648 ft | 144 kts | 180° |
| 2026-04-22 23:50 | 35.26235 | -80.95632 | 1473 ft | 143 kts | 178° |
| 2026-04-22 23:50 | 35.25197 | -80.95521 | 1224 ft | 149 kts | 180° |
| 2026-04-22 23:50 | 35.24171 | -80.95438 | 1048 ft | 147 kts | 179° |
| 2026-04-22 23:50 | 35.23158 | -80.95351 | 869 ft | 144 kts | 182° |
| 2026-04-22 23:51 | 35.22202 | -80.95276 | 747 ft | 131 kts | 180° |
| 2026-04-22 23:51 | 35.21430 | -80.95210 | 737 ft | 84 kts | 175° |
| 2026-04-22 23:51 | 35.21163 | -80.95145 | 735 ft | 22 kts | 121° |
| 2026-04-22 23:51 | 35.21154 | -80.95066 | 733 ft | 0 kts | 85° |
| 2026-04-22 23:52 | 35.21155 | -80.95054 | 733 ft | 2 kts | 84° |
| 2026-04-22 23:52 | 35.21157 | -80.95033 | 732 ft | 2 kts | 84° |
| 2026-04-22 23:52 | 35.21161 | -80.95010 | 732 ft | 3 kts | 70° |
| 2026-04-22 23:52 | 35.21170 | -80.94979 | 730 ft | 6 kts | 72° |
| 2026-04-22 23:53 | 35.21206 | -80.94911 | 730 ft | 11 kts | 30° |
| 2026-04-22 23:53 | 35.21284 | -80.94902 | 731 ft | 11 kts | 356° |
| 2026-04-22 23:53 | 35.21379 | -80.94912 | 731 ft | 16 kts | 355° |
| 2026-04-22 23:53 | 35.21496 | -80.94923 | 732 ft | 17 kts | 355° |
| 2026-04-22 23:54 | 35.21609 | -80.94930 | 732 ft | 16 kts | 356° |
| 2026-04-22 23:54 | 35.21717 | -80.94941 | 732 ft | 15 kts | 355° |
| 2026-04-22 23:54 | 35.21822 | -80.94954 | 730 ft | 15 kts | 353° |
| 2026-04-22 23:54 | 35.21918 | -80.94955 | 731 ft | 13 kts | 15° |
| 2026-04-22 23:55 | 35.21970 | -80.94907 | 731 ft | 6 kts | 60° |
| 2026-04-22 23:55 | 35.21978 | -80.94889 | 732 ft | 1 kts | 62° |
| 2026-04-22 23:55 | 35.21979 | -80.94885 | 732 ft | 0 kts | 61° |